| time (UTC) | temp F | wind direction | speed MPH | gust MPH | rain 1hr in | rain 24hr in | rain mn in | humidity % | barometer mb |
| 20260903001501 | 80 | 259 | 2.0 | 3.0 | 0.00 | 0.00 | 0.00 | 97 | 1016.3 |
| 20260903000502 | 81 | 243 | 2.0 | 4.0 | 0.00 | 0.00 | 0.00 | 96 | 1016.4 |
| 20260902235002 | 83 | 259 | 2.0 | 3.0 | 0.00 | 0.00 | 0.00 | 94 | 1016.3 |
| 20260902234502 | 84 | 248 | 2.0 | 3.0 | 0.00 | 0.00 | 0.00 | 93 | 1016.4 |
| 20260902232502 | 86 | 215 | 3.0 | 3.0 | 0.00 | 0.00 | 0.00 | 90 | 1016.5 |
| 20260902232001 | 86 | 224 | 2.0 | 3.0 | 0.00 | 0.00 | 0.00 | 89 | 1016.5 |
| 20260902230502 | 88 | 233 | 2.0 | 3.0 | 0.00 | 0.00 | 0.00 | 86 | 1016.3 |
| 20260902225501 | 88 | 214 | 4.0 | 6.0 | 0.00 | 0.00 | 0.00 | 84 | 1016.5 |
| 20260902225002 | 88 | 212 | 4.0 | 6.0 | 0.00 | 0.00 | 0.00 | 83 | 1016.4 |
| 20260902224002 | 89 | 230 | 4.0 | 8.0 | 0.00 | 0.00 | 0.00 | 82 | 1016.5 |
| 20260902223502 | 89 | 221 | 4.0 | 8.0 | 0.00 | 0.00 | 0.00 | 81 | 1016.3 |
| 20260902223002 | 89 | 222 | 5.0 | 6.0 | 0.00 | 0.00 | 0.00 | 81 | 1016.5 |
| 20260902222002 | 90 | 220 | 5.0 | 9.0 | 0.00 | 0.00 | 0.00 | 80 | 1016.5 |
| 20260902221502 | 90 | 221 | 4.0 | 7.0 | 0.00 | 0.00 | 0.00 | 80 | 1016.4 |
| 20260902221002 | 90 | 213 | 3.0 | 8.0 | 0.00 | 0.00 | 0.00 | 79 | 1016.5 |
| 20260902220501 | 90 | 222 | 5.0 | 9.0 | 0.00 | 0.00 | 0.00 | 78 | 1016.5 |
| 20260902220002 | 90 | 218 | 8.0 | 10.0 | 0.00 | 0.00 | 0.00 | 77 | 1016.4 |
| 20260902215502 | 90 | 234 | 6.0 | 8.0 | 0.00 | 0.00 | 0.00 | 78 | 1016.5 |
| 20260902215001 | 90 | 235 | 10.0 | 10.0 | 0.00 | 0.00 | 0.00 | 76 | 1016.5 |
| 20260902213501 | 90 | 210 | 5.0 | 7.0 | 0.00 | 0.00 | 0.00 | 78 | 1016.5 |
| 20260902213002 | 91 | 221 | 6.0 | 11.0 | 0.00 | 0.00 | 0.00 | 76 | 1016.6 |
| 20260902212502 | 91 | 210 | 4.0 | 7.0 | 0.00 | 0.00 | 0.00 | 77 | 1016.5 |
| 20260902211502 | 91 | 221 | 5.0 | 8.0 | 0.00 | 0.00 | 0.00 | 77 | 1016.5 |
| 20260902211002 | 92 | 238 | 5.0 | 9.0 | 0.00 | 0.00 | 0.00 | 76 | 1016.5 |
| 20260902210501 | 92 | 226 | 8.0 | 8.0 | 0.00 | 0.00 | 0.00 | 74 | 1016.5 |
| 20260902210002 | 91 | 213 | 5.0 | 7.0 | 0.00 | 0.00 | 0.00 | 76 | 1016.5 |
| 20260902205502 | 91 | 236 | 4.0 | 6.0 | 0.00 | 0.00 | 0.00 | 78 | 1016.6 |
| 20260902204501 | 91 | 226 | 5.0 | 8.0 | 0.00 | 0.00 | 0.00 | 75 | 1016.7 |
| 20260902203002 | 91 | 236 | 10.0 | 11.0 | 0.00 | 0.00 | 0.00 | 74 | 1017.1 |
| 20260902202502 | 92 | 223 | 6.0 | 9.0 | 0.00 | 0.00 | 0.00 | 76 | 1017.0 |
| 20260902201502 | 91 | 225 | 5.0 | 11.0 | 0.00 | 0.00 | 0.00 | 76 | 1016.9 |
| 20260902201002 | 91 | 224 | 8.0 | 11.0 | 0.00 | 0.00 | 0.00 | 72 | 1016.9 |
| 20260902200002 | 91 | 214 | 7.0 | 11.0 | 0.00 | 0.00 | 0.00 | 73 | 1017.1 |
| 20260902195501 | 91 | 217 | 6.0 | 10.0 | 0.00 | 0.00 | 0.00 | 72 | 1017.2 |
| 20260902195002 | 91 | 210 | 7.0 | 12.0 | 0.00 | 0.00 | 0.00 | 72 | 1017.3 |
| 20260902194501 | 91 | 225 | 9.0 | 12.0 | 0.00 | 0.00 | 0.00 | 74 | 1017.2 |
| 20260902193501 | 92 | 211 | 6.0 | 11.0 | 0.00 | 0.00 | 0.00 | 71 | 1017.4 |
| 20260902192003 | 92 | 220 | 5.0 | 9.0 | 0.00 | 0.00 | 0.00 | 76 | 1017.5 |
| 20260902190502 | 90 | 240 | 11.0 | 15.0 | 0.00 | 0.00 | 0.00 | 73 | 1017.8 |
| 20260902190002 | 91 | 209 | 5.0 | 9.0 | 0.00 | 0.00 | 0.00 | 75 | 1017.7 |
| 20260902185501 | 91 | 229 | 8.0 | 10.0 | 0.00 | 0.00 | 0.00 | 75 | 1017.8 |
| 20260902184502 | 91 | 231 | 6.0 | 13.0 | 0.00 | 0.00 | 0.00 | 75 | 1017.8 |
| 20260902183502 | 90 | 223 | 6.0 | 13.0 | 0.00 | 0.00 | 0.00 | 78 | 1017.9 |
| 20260902183002 | 90 | 220 | 8.0 | 11.0 | 0.00 | 0.00 | 0.00 | 74 | 1018.1 |
| 20260902182002 | 90 | 242 | 6.0 | 12.0 | 0.00 | 0.00 | 0.00 | 75 | 1018.2 |
| 20260902181502 | 90 | 211 | 7.0 | 10.0 | 0.00 | 0.00 | 0.00 | 77 | 1018.0 |
| 20260902181002 | 90 | 219 | 9.0 | 12.0 | 0.00 | 0.00 | 0.00 | 76 | 1018.1 |
| 20260902180005 | 91 | 238 | 7.0 | 12.0 | 0.00 | 0.00 | 0.00 | 76 | 1018.3 |
| 20260902175502 | 90 | 223 | 7.0 | 14.0 | 0.00 | 0.00 | 0.00 | 77 | 1018.3 |
| 20260902175002 | 90 | 216 | 4.0 | 11.0 | 0.00 | 0.00 | 0.00 | 77 | 1018.1 |
| 20260902174502 | 90 | 231 | 8.0 | 10.0 | 0.00 | 0.00 | 0.00 | 75 | 1018.2 |
| 20260902173501 | 90 | 243 | 4.0 | 8.0 | 0.00 | 0.00 | 0.00 | 78 | 1018.3 |
| 20260902172501 | 90 | 215 | 10.0 | 12.0 | 0.00 | 0.00 | 0.00 | 78 | 1018.5 |
| 20260902171502 | 89 | 218 | 5.0 | 11.0 | 0.00 | 0.00 | 0.00 | 81 | 1018.5 |
| 20260902170501 | 89 | 230 | 4.0 | 10.0 | 0.00 | 0.00 | 0.00 | 81 | 1018.6 |
| 20260902170002 | 89 | 227 | 5.0 | 10.0 | 0.00 | 0.00 | 0.00 | 79 | 1018.5 |
| 20260902165502 | 89 | 211 | 6.0 | 11.0 | 0.00 | 0.00 | 0.00 | 80 | 1018.8 |
| 20260902164501 | 88 | 257 | 6.0 | 10.0 | 0.00 | 0.00 | 0.00 | 80 | 1018.8 |
| 20260902164001 | 88 | 249 | 11.0 | 11.0 | 0.00 | 0.00 | 0.00 | 79 | 1018.8 |
| 20260902162501 | 88 | 218 | 4.0 | 9.0 | 0.00 | 0.00 | 0.00 | 82 | 1019.1 |
| 20260902162002 | 88 | 248 | 8.0 | 11.0 | 0.00 | 0.00 | 0.00 | 80 | 1019.2 |
| 20260902161502 | 87 | 250 | 4.0 | 12.0 | 0.00 | 0.00 | 0.00 | 83 | 1019.1 |
| 20260902161001 | 87 | 258 | 10.0 | 13.0 | 0.00 | 0.00 | 0.00 | 79 | 1019.1 |
| 20260902160502 | 87 | 262 | 9.0 | 13.0 | 0.00 | 0.00 | 0.00 | 80 | 1019.1 |
| 20260902160002 | 88 | 253 | 7.0 | 9.0 | 0.00 | 0.00 | 0.00 | 83 | 1019.2 |
| 20260902155501 | 87 | 254 | 9.0 | 11.0 | 0.00 | 0.00 | 0.00 | 82 | 1019.0 |
| 20260902155002 | 87 | 259 | 9.0 | 13.0 | 0.00 | 0.00 | 0.00 | 80 | 1019.0 |
| 20260902154502 | 87 | 263 | 9.0 | 11.0 | 0.00 | 0.00 | 0.00 | 81 | 1019.0 |
| 20260902154001 | 86 | 235 | 10.0 | 13.0 | 0.00 | 0.00 | 0.00 | 82 | 1019.0 |
| 20260902153502 | 86 | 262 | 5.0 | 9.0 | 0.00 | 0.00 | 0.00 | 82 | 1018.8 |
| 20260902153001 | 86 | 264 | 10.0 | 13.0 | 0.00 | 0.00 | 0.00 | 81 | 1018.9 |
| 20260902152502 | 86 | 251 | 9.0 | 13.0 | 0.00 | 0.00 | 0.00 | 83 | 1019.1 |
| 20260902151502 | 85 | 258 | 11.0 | 12.0 | 0.00 | 0.00 | 0.00 | 82 | 1018.8 |
| 20260902151002 | 85 | 252 | 7.0 | 12.0 | 0.00 | 0.00 | 0.00 | 84 | 1018.8 |
| 20260902150501 | 85 | 240 | 4.0 | 11.0 | 0.00 | 0.00 | 0.00 | 84 | 1018.7 |
| 20260902150002 | 85 | 245 | 7.0 | 11.0 | 0.00 | 0.00 | 0.00 | 84 | 1019.0 |
| 20260902145502 | 85 | 256 | 7.0 | 12.0 | 0.00 | 0.00 | 0.00 | 82 | 1018.9 |
| 20260902144502 | 84 | 242 | 4.0 | 11.0 | 0.00 | 0.00 | 0.00 | 84 | 1018.8 |
| 20260902144001 | 85 | 242 | 5.0 | 8.0 | 0.00 | 0.00 | 0.00 | 86 | 1018.8 |
| 20260902143502 | 84 | 255 | 5.0 | 9.0 | 0.00 | 0.00 | 0.00 | 84 | 1018.9 |
| 20260902142002 | 83 | 245 | 7.0 | 10.0 | 0.00 | 0.00 | 0.00 | 85 | 1018.7 |
| 20260902141002 | 83 | 255 | 5.0 | 7.0 | 0.00 | 0.00 | 0.00 | 87 | 1018.8 |
| 20260902140501 | 82 | 264 | 6.0 | 13.0 | 0.00 | 0.00 | 0.00 | 86 | 1019.0 |
| 20260902135502 | 82 | 257 | 6.0 | 10.0 | 0.00 | 0.00 | 0.00 | 89 | 1018.8 |
| 20260902135002 | 81 | 266 | 5.0 | 11.0 | 0.00 | 0.00 | 0.00 | 90 | 1018.8 |
| 20260902134001 | 80 | 251 | 4.0 | 11.0 | 0.00 | 0.00 | 0.00 | 91 | 1018.8 |
| 20260902132002 | 79 | 257 | 8.0 | 10.0 | 0.00 | 0.00 | 0.00 | 93 | 1018.9 |
| 20260902131502 | 79 | 227 | 5.0 | 9.0 | 0.00 | 0.00 | 0.00 | 93 | 1018.8 |
| 20260902131002 | 78 | 231 | 3.0 | 7.0 | 0.00 | 0.00 | 0.00 | 94 | 1018.8 |
| 20260902130501 | 78 | 249 | 7.0 | 8.0 | 0.00 | 0.00 | 0.00 | 94 | 1018.6 |
| 20260902130002 | 77 | 249 | 5.0 | 9.0 | 0.00 | 0.00 | 0.00 | 96 | 1018.8 |
| 20260902125501 | 76 | 253 | 6.0 | 9.0 | 0.00 | 0.00 | 0.00 | 96 | 1018.7 |
| 20260902125002 | 76 | 236 | 3.0 | 8.0 | 0.00 | 0.00 | 0.00 | 96 | 1019.0 |
| 20260902123502 | 75 | 236 | 6.0 | 8.0 | 0.00 | 0.00 | 0.00 | 97 | 1018.9 |
| 20260902121502 | 74 | 236 | 3.0 | 4.0 | 0.00 | 0.00 | 0.00 | 99 | 1019.0 |
| 20260902121001 | 74 | 240 | 2.0 | 4.0 | 0.00 | 0.00 | 0.00 | 99 | 1019.0 |
| 20260902120002 | 72 | 235 | 2.0 | 4.0 | 0.00 | 0.00 | 0.00 | 99 | 1018.8 |
| 20260902114501 | 71 | 259 | 2.0 | 3.0 | 0.00 | 0.00 | 0.00 | 99 | 1018.8 |
| 20260902113001 | 70 | 269 | 2.0 | 3.0 | 0.00 | 0.00 | 0.00 | 99 | 1018.8 |
| 20260902112001 | 70 | 264 | 2.0 | 3.0 | 0.00 | 0.00 | 0.00 | 99 | 1018.6 |
| 20260902111502 | 70 | 257 | 2.0 | 3.0 | 0.00 | 0.00 | 0.00 | 99 | 1018.6 |
| 20260902111002 | 70 | 261 | 3.0 | 3.0 | 0.00 | 0.00 | 0.00 | 99 | 1018.4 |
| 20260902110502 | 70 | 275 | 2.0 | 3.0 | 0.00 | 0.00 | 0.00 | 99 | 1018.5 |
| 20260902105501 | 70 | 253 | 3.0 | 3.0 | 0.00 | 0.00 | 0.00 | 99 | 1018.5 |
| 20260902105002 | 70 | 279 | 2.0 | 3.0 | 0.00 | 0.00 | 0.00 | 99 | 1018.4 |
| 20260902104002 | 71 | 244 | 2.0 | 3.0 | 0.00 | 0.00 | 0.00 | 99 | 1018.3 |
| 20260902103501 | 71 | 255 | 2.0 | 3.0 | 0.00 | 0.00 | 0.00 | 99 | 1018.6 |
| 20260902102001 | 71 | 263 | 2.0 | 3.0 | 0.00 | 0.00 | 0.00 | 99 | 1018.3 |
| 20260902100502 | 71 | 257 | 2.0 | 3.0 | 0.00 | 0.00 | 0.00 | 99 | 1018.1 |
| 20260902100003 | 71 | 223 | 2.0 | 2.0 | 0.00 | 0.00 | 0.00 | 99 | 1018.1 |
| 20260902095501 | 71 | 226 | 2.0 | 3.0 | 0.00 | 0.00 | 0.00 | 99 | 1018.2 |
| 20260902095002 | 72 | 253 | 2.0 | 3.0 | 0.00 | 0.00 | 0.00 | 99 | 1018.2 |
| 20260902094502 | 72 | 263 | 2.0 | 3.0 | 0.00 | 0.00 | 0.00 | 99 | 1018.0 |
| 20260902093502 | 72 | 211 | 2.0 | 3.0 | 0.00 | 0.00 | 0.00 | 99 | 1018.1 |
| 20260902093002 | 72 | 203 | 2.0 | 2.0 | 0.00 | 0.00 | 0.00 | 99 | 1017.8 |
| 20260902092501 | 72 | 248 | 2.0 | 4.0 | 0.00 | 0.00 | 0.00 | 99 | 1018.0 |
| 20260902092002 | 72 | 320 | 0.0 | 2.0 | 0.00 | 0.00 | 0.00 | 99 | 1018.0 |
| 20260902090501 | 72 | 232 | 2.0 | 3.0 | 0.00 | 0.00 | 0.00 | 99 | 1018.0 |
| 20260902090002 | 72 | 281 | 2.0 | 3.0 | 0.00 | 0.00 | 0.00 | 99 | 1018.1 |
| 20260902085501 | 72 | 272 | 2.0 | 3.0 | 0.00 | 0.00 | 0.00 | 99 | 1018.1 |
| 20260902085001 | 72 | 271 | 3.0 | 3.0 | 0.00 | 0.00 | 0.00 | 99 | 1018.0 |
| 20260902084501 | 72 | 261 | 2.0 | 3.0 | 0.00 | 0.00 | 0.00 | 99 | 1018.0 |
| 20260902084002 | 72 | 249 | 2.0 | 3.0 | 0.00 | 0.00 | 0.00 | 99 | 1018.0 |
| 20260902083501 | 72 | 279 | 2.0 | 3.0 | 0.00 | 0.00 | 0.00 | 99 | 1017.7 |
| 20260902083001 | 72 | 267 | 2.0 | 3.0 | 0.00 | 0.00 | 0.00 | 99 | 1017.9 |
| 20260902082002 | 72 | 257 | 2.0 | 4.0 | 0.00 | 0.00 | 0.00 | 99 | 1018.1 |
| 20260902081501 | 72 | 260 | 3.0 | 4.0 | 0.00 | 0.00 | 0.00 | 99 | 1018.0 |
| 20260902081002 | 72 | 263 | 2.0 | 3.0 | 0.00 | 0.00 | 0.00 | 99 | 1017.9 |
| 20260902075001 | 72 | 266 | 3.0 | 4.0 | 0.00 | 0.00 | 0.00 | 99 | 1017.7 |
| 20260902073502 | 72 | 269 | 2.0 | 2.0 | 0.00 | 0.00 | 0.00 | 99 | 1017.8 |
| 20260902073001 | 72 | 257 | 2.0 | 3.0 | 0.00 | 0.00 | 0.00 | 99 | 1017.9 |
| 20260902071501 | 73 | 232 | 2.0 | 3.0 | 0.00 | 0.00 | 0.00 | 99 | 1017.8 |
| 20260902070002 | 73 | 251 | 2.0 | 3.0 | 0.00 | 0.00 | 0.00 | 99 | 1017.8 |
| 20260902065502 | 73 | 251 | 2.0 | 4.0 | 0.00 | 0.00 | 0.00 | 99 | 1017.7 |
| 20260902065001 | 74 | 230 | 2.0 | 5.0 | 0.00 | 0.00 | 0.00 | 99 | 1017.6 |
| 20260902064502 | 74 | 249 | 0.0 | 4.0 | 0.00 | 0.00 | 0.00 | 99 | 1018.0 |
| 20260902064002 | 73 | 243 | 2.0 | 4.0 | 0.00 | 0.00 | 0.00 | 99 | 1017.9 |
| 20260902063502 | 73 | 260 | 2.0 | 3.0 | 0.00 | 0.00 | 0.00 | 99 | 1017.8 |
| 20260902061002 | 74 | 255 | 3.0 | 4.0 | 0.00 | 0.00 | 0.00 | 99 | 1018.0 |
| 20260902060502 | 74 | 242 | 3.0 | 3.0 | 0.00 | 0.00 | 0.00 | 99 | 1017.9 |
| 20260902060003 | 75 | 233 | 2.0 | 3.0 | 0.00 | 0.00 | 0.00 | 99 | 1018.2 |
| 20260902054502 | 75 | 266 | 2.0 | 4.0 | 0.00 | 0.00 | 0.00 | 99 | 1017.9 |
| 20260902053502 | 74 | 262 | 2.0 | 3.0 | 0.00 | 0.00 | 0.00 | 99 | 1018.0 |
| 20260902053001 | 74 | 258 | 2.0 | 3.0 | 0.00 | 0.00 | 0.00 | 99 | 1017.7 |
| 20260902052002 | 74 | 263 | 2.0 | 3.0 | 0.00 | 0.00 | 0.00 | 99 | 1017.9 |
| 20260902051502 | 74 | 269 | 2.0 | 3.0 | 0.00 | 0.00 | 0.00 | 99 | 1018.0 |
| 20260902051002 | 74 | 258 | 2.0 | 3.0 | 0.00 | 0.00 | 0.00 | 99 | 1017.8 |
| 20260902050502 | 74 | 259 | 2.0 | 4.0 | 0.00 | 0.00 | 0.00 | 99 | 1017.8 |
| 20260902044501 | 75 | 227 | 4.0 | 6.0 | 0.00 | 0.00 | 0.00 | 99 | 1017.8 |
| 20260902044002 | 74 | 235 | 3.0 | 4.0 | 0.00 | 0.00 | 0.00 | 99 | 1017.8 |
| 20260902043001 | 75 | 229 | 2.0 | 3.0 | 0.00 | 0.00 | 0.00 | 99 | 1017.8 |
| 20260902042502 | 75 | 218 | 2.0 | 4.0 | 0.00 | 0.00 | 0.00 | 99 | 1017.7 |
| 20260902041502 | 75 | 237 | 3.0 | 4.0 | 0.00 | 0.00 | 0.00 | 99 | 1017.8 |
| 20260902041002 | 76 | 255 | 2.0 | 4.0 | 0.00 | 0.00 | 0.00 | 98 | 1017.9 |
| 20260902040501 | 76 | 241 | 3.0 | 4.0 | 0.00 | 0.00 | 0.00 | 97 | 1017.7 |
| 20260902040002 | 76 | 219 | 5.0 | 8.0 | 0.00 | 0.00 | 0.00 | 98 | 1017.8 |
| 20260902035002 | 76 | 241 | 4.0 | 4.0 | 0.00 | 0.00 | 0.00 | 98 | 1017.6 |
| 20260902034501 | 77 | 207 | 3.0 | 5.0 | 0.00 | 0.00 | 0.00 | 97 | 1017.9 |
| 20260902033502 | 78 | 225 | 3.0 | 6.0 | 0.00 | 0.00 | 0.00 | 97 | 1017.7 |
| 20260902033001 | 78 | 213 | 3.0 | 6.0 | 0.00 | 0.00 | 0.00 | 97 | 1017.6 |
| 20260902032502 | 77 | 229 | 4.0 | 5.0 | 0.00 | 0.00 | 0.00 | 97 | 1017.6 |
| 20260902032001 | 77 | 219 | 3.0 | 7.0 | 0.00 | 0.00 | 0.00 | 99 | 1017.8 |
| 20260902030501 | 76 | 252 | 3.0 | 5.0 | 0.00 | 0.00 | 0.00 | 99 | 1017.6 |
| 20260902030002 | 77 | 264 | 4.0 | 5.0 | 0.00 | 0.00 | 0.00 | 99 | 1017.8 |
| 20260902025002 | 78 | 227 | 4.0 | 6.0 | 0.00 | 0.00 | 0.00 | 97 | 1017.8 |
| 20260902024502 | 79 | 217 | 3.0 | 8.0 | 0.00 | 0.00 | 0.00 | 96 | 1017.7 |
| 20260902024001 | 80 | 204 | 6.0 | 11.0 | 0.00 | 0.00 | 0.00 | 95 | 1017.9 |
| 20260902023502 | 79 | 219 | 5.0 | 9.0 | 0.00 | 0.00 | 0.00 | 96 | 1017.7 |
| 20260902023001 | 79 | 222 | 3.0 | 8.0 | 0.00 | 0.00 | 0.00 | 97 | 1017.7 |
| 20260902022502 | 78 | 217 | 5.0 | 7.0 | 0.00 | 0.00 | 0.00 | 98 | 1017.6 |
| 20260902022002 | 77 | 243 | 3.0 | 4.0 | 0.00 | 0.00 | 0.00 | 99 | 1017.8 |
| 20260902021501 | 78 | 265 | 3.0 | 4.0 | 0.00 | 0.00 | 0.00 | 99 | 1017.8 |
| 20260902021002 | 78 | 262 | 2.0 | 4.0 | 0.00 | 0.00 | 0.00 | 99 | 1017.8 |
| 20260902020502 | 78 | 256 | 2.0 | 3.0 | 0.00 | 0.00 | 0.00 | 99 | 1017.8 |
| 20260902015502 | 78 | 263 | 2.0 | 4.0 | 0.00 | 0.00 | 0.00 | 99 | 1017.6 |
| 20260902014502 | 79 | 271 | 3.0 | 4.0 | 0.00 | 0.00 | 0.00 | 97 | 1017.7 |
| 20260902013002 | 81 | 210 | 4.0 | 5.0 | 0.00 | 0.00 | 0.00 | 94 | 1017.6 |
| 20260902012501 | 80 | 202 | 3.0 | 5.0 | 0.00 | 0.00 | 0.00 | 96 | 1017.5 |
| 20260902012002 | 79 | 245 | 2.0 | 3.0 | 0.00 | 0.00 | 0.00 | 99 | 1017.6 |
| 20260902011502 | 79 | 178 | 2.0 | 5.0 | 0.00 | 0.00 | 0.00 | 99 | 1017.5 |
| 20260902011002 | 79 | 213 | 2.0 | 3.0 | 0.00 | 0.00 | 0.00 | 99 | 1017.5 |
| 20260902010501 | 79 | 207 | 2.0 | 2.0 | 0.00 | 0.00 | 0.00 | 99 | 1017.5 |
| 20260902005501 | 80 | 252 | 2.0 | 4.0 | 0.00 | 0.00 | 0.00 | 99 | 1017.4 |
| 20260902005002 | 79 | 261 | 2.0 | 4.0 | 0.00 | 0.00 | 0.00 | 99 | 1017.4 |
| 20260902004002 | 80 | 284 | 0.0 | 2.0 | 0.00 | 0.00 | 0.00 | 99 | 1017.3 |
| 20260902003501 | 81 | 210 | 2.0 | 2.0 | 0.00 | 0.00 | 0.00 | 98 | 1017.2 |
| 20260902002502 | 81 | 124 | 0.0 | 2.0 | 0.00 | 0.00 | 0.00 | 98 | 1017.4 |
| 20260902002001 | 81 | 224 | 0.0 | 2.0 | 0.00 | 0.00 | 0.00 | 97 | 1017.3 |